sensor_id;sensor_type;location;lat;lon;timestamp;P1;durP1;ratioP1;P2;durP2;ratioP2
10717;SDS011;13513;42.700;23.124;2022-10-23T00:01:16;11.83;;;6.60;;
10717;SDS011;13513;42.700;23.124;2022-10-23T00:03:50;14.03;;;6.70;;
10717;SDS011;13513;42.700;23.124;2022-10-23T00:06:24;12.05;;;6.62;;
10717;SDS011;13513;42.700;23.124;2022-10-23T00:08:55;8.58;;;6.30;;
10717;SDS011;13513;42.700;23.124;2022-10-23T00:11:26;10.47;;;6.53;;
10717;SDS011;13513;42.700;23.124;2022-10-23T00:13:59;15.45;;;7.03;;
10717;SDS011;13513;42.700;23.124;2022-10-23T00:16:31;9.98;;;6.12;;
10717;SDS011;13513;42.700;23.124;2022-10-23T00:19:02;15.38;;;6.62;;
10717;SDS011;13513;42.700;23.124;2022-10-23T00:21:33;11.88;;;6.50;;
10717;SDS011;13513;42.700;23.124;2022-10-23T00:24:04;13.05;;;6.72;;
10717;SDS011;13513;42.700;23.124;2022-10-23T00:26:35;12.23;;;6.22;;
10717;SDS011;13513;42.700;23.124;2022-10-23T00:29:07;13.00;;;6.35;;
10717;SDS011;13513;42.700;23.124;2022-10-23T00:31:38;13.55;;;6.70;;
10717;SDS011;13513;42.700;23.124;2022-10-23T00:34:10;15.43;;;6.58;;
10717;SDS011;13513;42.700;23.124;2022-10-23T00:36:41;12.40;;;6.53;;
10717;SDS011;13513;42.700;23.124;2022-10-23T00:39:12;10.00;;;6.47;;
10717;SDS011;13513;42.700;23.124;2022-10-23T00:41:43;17.45;;;6.62;;
10717;SDS011;13513;42.700;23.124;2022-10-23T00:46:49;12.65;;;6.60;;
10717;SDS011;13513;42.700;23.124;2022-10-23T00:49:20;10.00;;;5.80;;
10717;SDS011;13513;42.700;23.124;2022-10-23T00:51:52;9.63;;;6.28;;
10717;SDS011;13513;42.700;23.124;2022-10-23T00:54:26;9.90;;;6.58;;
10717;SDS011;13513;42.700;23.124;2022-10-23T00:56:58;12.70;;;6.20;;
10717;SDS011;13513;42.700;23.124;2022-10-23T00:59:32;10.80;;;6.58;;
10717;SDS011;13513;42.700;23.124;2022-10-23T01:02:04;14.05;;;6.60;;
10717;SDS011;13513;42.700;23.124;2022-10-23T01:04:34;13.03;;;6.85;;
10717;SDS011;13513;42.700;23.124;2022-10-23T01:15:17;11.50;;;6.75;;
10717;SDS011;13513;42.700;23.124;2022-10-23T01:17:51;13.88;;;6.67;;
10717;SDS011;13513;42.700;23.124;2022-10-23T01:20:30;16.02;;;7.10;;
10717;SDS011;13513;42.700;23.124;2022-10-23T01:23:10;12.13;;;6.55;;
10717;SDS011;13513;42.700;23.124;2022-10-23T01:31:44;13.40;;;7.15;;
10717;SDS011;13513;42.700;23.124;2022-10-23T01:34:15;13.03;;;6.58;;
10717;SDS011;13513;42.700;23.124;2022-10-23T01:36:46;9.95;;;5.85;;
10717;SDS011;13513;42.700;23.124;2022-10-23T01:39:24;9.05;;;5.25;;
10717;SDS011;13513;42.700;23.124;2022-10-23T01:41:52;10.58;;;5.83;;
10717;SDS011;13513;42.700;23.124;2022-10-23T01:46:58;12.05;;;4.37;;
10717;SDS011;13513;42.700;23.124;2022-10-23T01:49:31;13.85;;;4.58;;
10717;SDS011;13513;42.700;23.124;2022-10-23T01:52:05;11.88;;;4.35;;
10717;SDS011;13513;42.700;23.124;2022-10-23T01:54:38;12.88;;;4.50;;
10717;SDS011;13513;42.700;23.124;2022-10-23T01:57:13;10.70;;;3.90;;
10717;SDS011;13513;42.700;23.124;2022-10-23T01:59:46;11.60;;;4.35;;
10717;SDS011;13513;42.700;23.124;2022-10-23T02:02:21;8.65;;;4.05;;
10717;SDS011;13513;42.700;23.124;2022-10-23T02:04:57;13.22;;;4.00;;
10717;SDS011;13513;42.700;23.124;2022-10-23T02:07:31;10.38;;;4.90;;
10717;SDS011;13513;42.700;23.124;2022-10-23T02:10:06;10.75;;;5.75;;
10717;SDS011;13513;42.700;23.124;2022-10-23T02:21:07;12.80;;;5.95;;
10717;SDS011;13513;42.700;23.124;2022-10-23T02:23:35;11.03;;;5.85;;
10717;SDS011;13513;42.700;23.124;2022-10-23T02:26:12;16.17;;;6.42;;
10717;SDS011;13513;42.700;23.124;2022-10-23T02:28:46;12.07;;;6.50;;
10717;SDS011;13513;42.700;23.124;2022-10-23T02:31:16;12.98;;;6.85;;
10717;SDS011;13513;42.700;23.124;2022-10-23T02:33:51;13.48;;;6.80;;
10717;SDS011;13513;42.700;23.124;2022-10-23T02:36:22;9.75;;;6.62;;
10717;SDS011;13513;42.700;23.124;2022-10-23T02:38:53;15.05;;;6.33;;
10717;SDS011;13513;42.700;23.124;2022-10-23T02:41:32;11.73;;;6.42;;
10717;SDS011;13513;42.700;23.124;2022-10-23T02:47:18;13.45;;;6.35;;
10717;SDS011;13513;42.700;23.124;2022-10-23T02:50:06;14.47;;;6.83;;
10717;SDS011;13513;42.700;23.124;2022-10-23T02:53:12;16.77;;;6.40;;
10717;SDS011;13513;42.700;23.124;2022-10-23T02:55:48;14.47;;;7.08;;
10717;SDS011;13513;42.700;23.124;2022-10-23T02:58:25;12.85;;;6.65;;
10717;SDS011;13513;42.700;23.124;2022-10-23T03:01:05;10.95;;;7.03;;
10717;SDS011;13513;42.700;23.124;2022-10-23T03:03:37;12.53;;;6.35;;
10717;SDS011;13513;42.700;23.124;2022-10-23T03:06:10;13.45;;;6.15;;
10717;SDS011;13513;42.700;23.124;2022-10-23T03:08:41;11.38;;;5.47;;
10717;SDS011;13513;42.700;23.124;2022-10-23T03:11:13;13.85;;;5.42;;
10717;SDS011;13513;42.700;23.124;2022-10-23T03:13:44;8.73;;;5.35;;
10717;SDS011;13513;42.700;23.124;2022-10-23T03:16:15;11.70;;;5.95;;
10717;SDS011;13513;42.700;23.124;2022-10-23T03:18:46;9.78;;;6.25;;
10717;SDS011;13513;42.700;23.124;2022-10-23T03:21:16;12.95;;;6.42;;
10717;SDS011;13513;42.700;23.124;2022-10-23T03:23:49;12.05;;;6.80;;
10717;SDS011;13513;42.700;23.124;2022-10-23T03:26:21;13.80;;;6.85;;
10717;SDS011;13513;42.700;23.124;2022-10-23T03:28:52;8.65;;;5.58;;
10717;SDS011;13513;42.700;23.124;2022-10-23T03:31:22;12.45;;;6.00;;
10717;SDS011;13513;42.700;23.124;2022-10-23T03:33:53;11.80;;;6.42;;
10717;SDS011;13513;42.700;23.124;2022-10-23T03:36:22;13.72;;;5.92;;
10717;SDS011;13513;42.700;23.124;2022-10-23T03:38:53;11.15;;;6.22;;
10717;SDS011;13513;42.700;23.124;2022-10-23T03:41:23;16.95;;;5.47;;
10717;SDS011;13513;42.700;23.124;2022-10-23T03:43:54;12.75;;;5.55;;
10717;SDS011;13513;42.700;23.124;2022-10-23T03:46:25;14.85;;;6.60;;
10717;SDS011;13513;42.700;23.124;2022-10-23T03:48:56;17.57;;;6.08;;
10717;SDS011;13513;42.700;23.124;2022-10-23T03:51:27;9.70;;;5.85;;
10717;SDS011;13513;42.700;23.124;2022-10-23T03:53:58;9.33;;;5.70;;
10717;SDS011;13513;42.700;23.124;2022-10-23T03:56:29;9.58;;;4.90;;
10717;SDS011;13513;42.700;23.124;2022-10-23T03:58:59;11.33;;;5.22;;
10717;SDS011;13513;42.700;23.124;2022-10-23T04:01:30;11.20;;;5.20;;
10717;SDS011;13513;42.700;23.124;2022-10-23T04:04:01;9.75;;;4.80;;
10717;SDS011;13513;42.700;23.124;2022-10-23T04:06:32;11.95;;;5.75;;
10717;SDS011;13513;42.700;23.124;2022-10-23T04:09:03;13.40;;;5.30;;
10717;SDS011;13513;42.700;23.124;2022-10-23T04:11:35;13.30;;;5.62;;
10717;SDS011;13513;42.700;23.124;2022-10-23T04:14:06;11.57;;;5.67;;
10717;SDS011;13513;42.700;23.124;2022-10-23T04:16:36;11.97;;;4.72;;
10717;SDS011;13513;42.700;23.124;2022-10-23T04:19:07;13.08;;;5.05;;
10717;SDS011;13513;42.700;23.124;2022-10-23T04:21:38;8.68;;;4.95;;
10717;SDS011;13513;42.700;23.124;2022-10-23T04:24:09;8.38;;;4.35;;
10717;SDS011;13513;42.700;23.124;2022-10-23T04:26:40;8.68;;;4.40;;
10717;SDS011;13513;42.700;23.124;2022-10-23T04:29:14;8.18;;;4.22;;
10717;SDS011;13513;42.700;23.124;2022-10-23T04:31:45;9.73;;;4.45;;
10717;SDS011;13513;42.700;23.124;2022-10-23T04:34:17;9.73;;;4.83;;
10717;SDS011;13513;42.700;23.124;2022-10-23T04:36:48;8.63;;;4.28;;
10717;SDS011;13513;42.700;23.124;2022-10-23T04:39:18;9.45;;;5.10;;
10717;SDS011;13513;42.700;23.124;2022-10-23T04:41:49;8.90;;;4.37;;
10717;SDS011;13513;42.700;23.124;2022-10-23T04:44:20;14.98;;;4.60;;
10717;SDS011;13513;42.700;23.124;2022-10-23T04:46:51;10.58;;;4.62;;
10717;SDS011;13513;42.700;23.124;2022-10-23T04:49:21;8.53;;;4.00;;
10717;SDS011;13513;42.700;23.124;2022-10-23T04:51:52;8.20;;;4.50;;
10717;SDS011;13513;42.700;23.124;2022-10-23T04:54:23;11.53;;;4.72;;
10717;SDS011;13513;42.700;23.124;2022-10-23T04:56:54;8.05;;;4.22;;
10717;SDS011;13513;42.700;23.124;2022-10-23T04:59:25;7.70;;;4.62;;
10717;SDS011;13513;42.700;23.124;2022-10-23T05:01:56;12.35;;;4.40;;
10717;SDS011;13513;42.700;23.124;2022-10-23T05:04:26;7.62;;;4.03;;
10717;SDS011;13513;42.700;23.124;2022-10-23T05:06:57;11.28;;;4.70;;
10717;SDS011;13513;42.700;23.124;2022-10-23T05:09:27;9.65;;;4.70;;
10717;SDS011;13513;42.700;23.124;2022-10-23T05:11:58;9.75;;;4.12;;
10717;SDS011;13513;42.700;23.124;2022-10-23T05:14:29;11.18;;;5.05;;
10717;SDS011;13513;42.700;23.124;2022-10-23T05:16:59;8.33;;;4.20;;
10717;SDS011;13513;42.700;23.124;2022-10-23T05:19:39;7.30;;;4.40;;
10717;SDS011;13513;42.700;23.124;2022-10-23T05:22:09;9.33;;;4.97;;
10717;SDS011;13513;42.700;23.124;2022-10-23T05:24:40;10.70;;;4.35;;
10717;SDS011;13513;42.700;23.124;2022-10-23T05:27:10;8.18;;;4.50;;
10717;SDS011;13513;42.700;23.124;2022-10-23T05:29:41;8.35;;;4.75;;
10717;SDS011;13513;42.700;23.124;2022-10-23T05:32:14;7.85;;;4.78;;
10717;SDS011;13513;42.700;23.124;2022-10-23T05:34:46;7.70;;;4.40;;
10717;SDS011;13513;42.700;23.124;2022-10-23T05:37:17;8.60;;;4.78;;
10717;SDS011;13513;42.700;23.124;2022-10-23T05:39:48;10.75;;;5.00;;
10717;SDS011;13513;42.700;23.124;2022-10-23T05:42:19;11.50;;;4.50;;
10717;SDS011;13513;42.700;23.124;2022-10-23T05:44:50;8.55;;;4.50;;
10717;SDS011;13513;42.700;23.124;2022-10-23T05:47:22;10.32;;;4.55;;
10717;SDS011;13513;42.700;23.124;2022-10-23T05:49:52;10.20;;;4.50;;
10717;SDS011;13513;42.700;23.124;2022-10-23T05:52:23;8.65;;;4.35;;
10717;SDS011;13513;42.700;23.124;2022-10-23T05:54:53;7.47;;;4.50;;
10717;SDS011;13513;42.700;23.124;2022-10-23T05:57:24;5.75;;;4.05;;
10717;SDS011;13513;42.700;23.124;2022-10-23T05:59:55;8.65;;;4.30;;
10717;SDS011;13513;42.700;23.124;2022-10-23T06:02:26;8.58;;;4.53;;
10717;SDS011;13513;42.700;23.124;2022-10-23T06:04:56;9.63;;;4.70;;
10717;SDS011;13513;42.700;23.124;2022-10-23T06:07:27;12.00;;;4.55;;
10717;SDS011;13513;42.700;23.124;2022-10-23T06:09:59;7.15;;;4.80;;
10717;SDS011;13513;42.700;23.124;2022-10-23T06:12:29;8.38;;;4.53;;
10717;SDS011;13513;42.700;23.124;2022-10-23T06:15:01;10.48;;;4.70;;
10717;SDS011;13513;42.700;23.124;2022-10-23T06:17:31;11.97;;;4.58;;
10717;SDS011;13513;42.700;23.124;2022-10-23T06:20:02;6.35;;;4.83;;
10717;SDS011;13513;42.700;23.124;2022-10-23T06:22:34;12.40;;;5.17;;
10717;SDS011;13513;42.700;23.124;2022-10-23T06:25:07;8.88;;;5.12;;
10717;SDS011;13513;42.700;23.124;2022-10-23T06:27:37;9.50;;;4.50;;
10717;SDS011;13513;42.700;23.124;2022-10-23T06:30:09;8.95;;;4.40;;
10717;SDS011;13513;42.700;23.124;2022-10-23T06:32:41;7.62;;;4.67;;
10717;SDS011;13513;42.700;23.124;2022-10-23T06:35:12;8.08;;;5.67;;
10717;SDS011;13513;42.700;23.124;2022-10-23T06:37:47;6.10;;;4.62;;
10717;SDS011;13513;42.700;23.124;2022-10-23T06:40:18;10.68;;;5.30;;
10717;SDS011;13513;42.700;23.124;2022-10-23T06:42:48;12.03;;;5.15;;
10717;SDS011;13513;42.700;23.124;2022-10-23T06:45:19;7.90;;;4.92;;
10717;SDS011;13513;42.700;23.124;2022-10-23T06:47:50;6.67;;;4.55;;
10717;SDS011;13513;42.700;23.124;2022-10-23T06:50:21;8.43;;;5.28;;
10717;SDS011;13513;42.700;23.124;2022-10-23T06:52:52;9.38;;;4.90;;
10717;SDS011;13513;42.700;23.124;2022-10-23T06:55:23;14.23;;;5.17;;
10717;SDS011;13513;42.700;23.124;2022-10-23T06:57:54;8.28;;;5.40;;
10717;SDS011;13513;42.700;23.124;2022-10-23T07:00:24;7.92;;;5.15;;
10717;SDS011;13513;42.700;23.124;2022-10-23T07:02:55;12.30;;;5.03;;
10717;SDS011;13513;42.700;23.124;2022-10-23T07:05:26;7.95;;;4.90;;
10717;SDS011;13513;42.700;23.124;2022-10-23T07:07:57;5.00;;;4.28;;
10717;SDS011;13513;42.700;23.124;2022-10-23T07:10:28;10.82;;;4.90;;
10717;SDS011;13513;42.700;23.124;2022-10-23T07:13:00;9.08;;;4.85;;
10717;SDS011;13513;42.700;23.124;2022-10-23T07:15:30;7.42;;;4.97;;
10717;SDS011;13513;42.700;23.124;2022-10-23T07:18:00;9.03;;;4.75;;
10717;SDS011;13513;42.700;23.124;2022-10-23T07:20:34;9.33;;;4.90;;
10717;SDS011;13513;42.700;23.124;2022-10-23T07:23:05;8.48;;;5.10;;
10717;SDS011;13513;42.700;23.124;2022-10-23T07:25:36;8.25;;;4.60;;
10717;SDS011;13513;42.700;23.124;2022-10-23T07:28:08;13.70;;;4.80;;
10717;SDS011;13513;42.700;23.124;2022-10-23T07:30:38;7.95;;;4.97;;
10717;SDS011;13513;42.700;23.124;2022-10-23T07:33:09;9.78;;;5.35;;
10717;SDS011;13513;42.700;23.124;2022-10-23T07:35:40;12.90;;;5.85;;
10717;SDS011;13513;42.700;23.124;2022-10-23T07:38:15;7.47;;;4.47;;
10717;SDS011;13513;42.700;23.124;2022-10-23T07:40:45;9.88;;;4.67;;
10717;SDS011;13513;42.700;23.124;2022-10-23T07:43:15;9.10;;;4.70;;
10717;SDS011;13513;42.700;23.124;2022-10-23T07:45:46;7.45;;;4.90;;
10717;SDS011;13513;42.700;23.124;2022-10-23T07:48:18;7.15;;;4.40;;
10717;SDS011;13513;42.700;23.124;2022-10-23T07:50:49;8.88;;;5.10;;
10717;SDS011;13513;42.700;23.124;2022-10-23T07:53:21;8.85;;;4.60;;
10717;SDS011;13513;42.700;23.124;2022-10-23T07:55:53;8.70;;;4.50;;
10717;SDS011;13513;42.700;23.124;2022-10-23T07:58:28;8.65;;;4.50;;
10717;SDS011;13513;42.700;23.124;2022-10-23T08:01:00;11.63;;;4.50;;
10717;SDS011;13513;42.700;23.124;2022-10-23T08:03:32;10.85;;;4.58;;
10717;SDS011;13513;42.700;23.124;2022-10-23T08:06:03;11.48;;;4.92;;
10717;SDS011;13513;42.700;23.124;2022-10-23T08:08:35;7.28;;;4.45;;
10717;SDS011;13513;42.700;23.124;2022-10-23T08:11:05;8.85;;;5.28;;
10717;SDS011;13513;42.700;23.124;2022-10-23T08:13:37;7.83;;;4.53;;
10717;SDS011;13513;42.700;23.124;2022-10-23T08:16:08;9.60;;;5.15;;
10717;SDS011;13513;42.700;23.124;2022-10-23T08:18:39;9.93;;;4.33;;
10717;SDS011;13513;42.700;23.124;2022-10-23T08:21:10;7.30;;;4.20;;
10717;SDS011;13513;42.700;23.124;2022-10-23T08:23:42;8.65;;;4.60;;
10717;SDS011;13513;42.700;23.124;2022-10-23T08:26:13;10.35;;;4.72;;
10717;SDS011;13513;42.700;23.124;2022-10-23T08:28:42;7.47;;;3.90;;
10717;SDS011;13513;42.700;23.124;2022-10-23T08:31:14;9.70;;;3.52;;
10717;SDS011;13513;42.700;23.124;2022-10-23T08:33:47;7.00;;;3.92;;
10717;SDS011;13513;42.700;23.124;2022-10-23T08:36:21;7.28;;;4.08;;
10717;SDS011;13513;42.700;23.124;2022-10-23T08:38:55;5.42;;;3.83;;
10717;SDS011;13513;42.700;23.124;2022-10-23T08:41:28;5.33;;;3.50;;
10717;SDS011;13513;42.700;23.124;2022-10-23T08:44:04;7.95;;;3.92;;
10717;SDS011;13513;42.700;23.124;2022-10-23T08:46:46;6.10;;;3.83;;
10717;SDS011;13513;42.700;23.124;2022-10-23T08:49:24;7.65;;;3.58;;
10717;SDS011;13513;42.700;23.124;2022-10-23T08:52:15;7.58;;;3.02;;
10717;SDS011;13513;42.700;23.124;2022-10-23T08:57:25;4.78;;;3.30;;
10717;SDS011;13513;42.700;23.124;2022-10-23T08:59:59;6.22;;;3.20;;
10717;SDS011;13513;42.700;23.124;2022-10-23T09:02:50;4.17;;;3.15;;
10717;SDS011;13513;42.700;23.124;2022-10-23T09:05:20;6.05;;;3.30;;
10717;SDS011;13513;42.700;23.124;2022-10-23T09:08:08;7.78;;;3.50;;
10717;SDS011;13513;42.700;23.124;2022-10-23T09:11:01;3.08;;;2.67;;
10717;SDS011;13513;42.700;23.124;2022-10-23T09:13:59;4.12;;;2.80;;
10717;SDS011;13513;42.700;23.124;2022-10-23T09:16:51;4.20;;;2.95;;
10717;SDS011;13513;42.700;23.124;2022-10-23T09:19:29;5.90;;;2.37;;
10717;SDS011;13513;42.700;23.124;2022-10-23T09:22:00;4.25;;;2.52;;
10717;SDS011;13513;42.700;23.124;2022-10-23T09:24:31;4.55;;;2.80;;
10717;SDS011;13513;42.700;23.124;2022-10-23T09:27:02;4.25;;;2.58;;
10717;SDS011;13513;42.700;23.124;2022-10-23T09:29:33;7.33;;;2.62;;
10717;SDS011;13513;42.700;23.124;2022-10-23T09:32:04;4.60;;;2.60;;
10717;SDS011;13513;42.700;23.124;2022-10-23T09:34:36;2.25;;;2.05;;
10717;SDS011;13513;42.700;23.124;2022-10-23T09:37:20;4.95;;;2.50;;
10717;SDS011;13513;42.700;23.124;2022-10-23T09:42:51;5.42;;;3.35;;
10717;SDS011;13513;42.700;23.124;2022-10-23T09:45:25;2.98;;;2.50;;
10717;SDS011;13513;42.700;23.124;2022-10-23T09:48:10;3.00;;;2.10;;
10717;SDS011;13513;42.700;23.124;2022-10-23T09:50:46;5.35;;;2.50;;
10717;SDS011;13513;42.700;23.124;2022-10-23T09:53:17;4.33;;;2.47;;
10717;SDS011;13513;42.700;23.124;2022-10-23T09:55:52;3.80;;;2.50;;
10717;SDS011;13513;42.700;23.124;2022-10-23T09:58:34;5.70;;;2.65;;
10717;SDS011;13513;42.700;23.124;2022-10-23T10:01:04;5.25;;;2.67;;
10717;SDS011;13513;42.700;23.124;2022-10-23T10:03:35;2.92;;;2.40;;
10717;SDS011;13513;42.700;23.124;2022-10-23T10:06:17;2.98;;;2.40;;
10717;SDS011;13513;42.700;23.124;2022-10-23T10:08:39;4.83;;;2.30;;
10717;SDS011;13513;42.700;23.124;2022-10-23T10:11:18;3.95;;;2.25;;
10717;SDS011;13513;42.700;23.124;2022-10-23T10:13:54;3.95;;;1.95;;
10717;SDS011;13513;42.700;23.124;2022-10-23T10:19:28;3.12;;;2.40;;
10717;SDS011;13513;42.700;23.124;2022-10-23T10:22:22;4.15;;;2.35;;
10717;SDS011;13513;42.700;23.124;2022-10-23T10:24:55;3.00;;;1.62;;
10717;SDS011;13513;42.700;23.124;2022-10-23T10:27:30;1.40;;;1.30;;
10717;SDS011;13513;42.700;23.124;2022-10-23T10:30:18;2.10;;;1.90;;
10717;SDS011;13513;42.700;23.124;2022-10-23T10:33:08;2.47;;;2.20;;
10717;SDS011;13513;42.700;23.124;2022-10-23T10:35:58;2.33;;;1.85;;
10717;SDS011;13513;42.700;23.124;2022-10-23T10:38:50;6.20;;;1.90;;
10717;SDS011;13513;42.700;23.124;2022-10-23T10:46:45;2.75;;;1.10;;
10717;SDS011;13513;42.700;23.124;2022-10-23T10:49:17;4.12;;;1.17;;
10717;SDS011;13513;42.700;23.124;2022-10-23T10:54:41;2.15;;;1.37;;
10717;SDS011;13513;42.700;23.124;2022-10-23T11:00:14;1.57;;;1.37;;
10717;SDS011;13513;42.700;23.124;2022-10-23T11:02:45;1.50;;;1.35;;
10717;SDS011;13513;42.700;23.124;2022-10-23T11:05:35;1.87;;;1.42;;
10717;SDS011;13513;42.700;23.124;2022-10-23T11:08:04;1.77;;;1.50;;
10717;SDS011;13513;42.700;23.124;2022-10-23T11:10:33;1.77;;;1.35;;
10717;SDS011;13513;42.700;23.124;2022-10-23T11:13:11;2.02;;;1.25;;
10717;SDS011;13513;42.700;23.124;2022-10-23T11:15:41;1.30;;;1.20;;
10717;SDS011;13513;42.700;23.124;2022-10-23T11:18:14;1.85;;;1.50;;
10717;SDS011;13513;42.700;23.124;2022-10-23T11:29:26;3.70;;;1.40;;
10717;SDS011;13513;42.700;23.124;2022-10-23T11:32:15;2.05;;;1.45;;
10717;SDS011;13513;42.700;23.124;2022-10-23T11:37:26;1.62;;;1.20;;
10717;SDS011;13513;42.700;23.124;2022-10-23T11:42:45;2.83;;;1.40;;
10717;SDS011;13513;42.700;23.124;2022-10-23T11:45:25;1.62;;;1.52;;
10717;SDS011;13513;42.700;23.124;2022-10-23T11:47:57;1.30;;;1.20;;
10717;SDS011;13513;42.700;23.124;2022-10-23T11:50:32;1.30;;;1.20;;
10717;SDS011;13513;42.700;23.124;2022-10-23T11:53:04;4.97;;;1.62;;
10717;SDS011;13513;42.700;23.124;2022-10-23T11:55:37;1.95;;;1.45;;
10717;SDS011;13513;42.700;23.124;2022-10-23T11:58:16;2.00;;;1.00;;
10717;SDS011;13513;42.700;23.124;2022-10-23T12:00:50;1.50;;;1.40;;
10717;SDS011;13513;42.700;23.124;2022-10-23T12:03:21;4.55;;;1.20;;
10717;SDS011;13513;42.700;23.124;2022-10-23T12:05:59;1.10;;;1.00;;
10717;SDS011;13513;42.700;23.124;2022-10-23T12:08:33;1.55;;;1.45;;
10717;SDS011;13513;42.700;23.124;2022-10-23T12:11:04;2.10;;;1.40;;
10717;SDS011;13513;42.700;23.124;2022-10-23T12:16:10;6.90;;;1.35;;
10717;SDS011;13513;42.700;23.124;2022-10-23T12:18:51;1.40;;;1.30;;
10717;SDS011;13513;42.700;23.124;2022-10-23T12:21:22;3.12;;;1.30;;
10717;SDS011;13513;42.700;23.124;2022-10-23T12:30:03;4.00;;;1.42;;
10717;SDS011;13513;42.700;23.124;2022-10-23T12:38:41;1.77;;;1.47;;
10717;SDS011;13513;42.700;23.124;2022-10-23T12:41:14;1.70;;;1.60;;
10717;SDS011;13513;42.700;23.124;2022-10-23T12:43:53;2.50;;;1.42;;
10717;SDS011;13513;42.700;23.124;2022-10-23T12:46:30;1.55;;;1.40;;
10717;SDS011;13513;42.700;23.124;2022-10-23T12:49:21;2.05;;;1.40;;
10717;SDS011;13513;42.700;23.124;2022-10-23T12:51:57;2.40;;;1.30;;
10717;SDS011;13513;42.700;23.124;2022-10-23T12:54:37;2.52;;;1.50;;
10717;SDS011;13513;42.700;23.124;2022-10-23T12:57:25;1.42;;;1.30;;
10717;SDS011;13513;42.700;23.124;2022-10-23T12:59:57;1.35;;;1.25;;
10717;SDS011;13513;42.700;23.124;2022-10-23T13:02:31;2.70;;;1.30;;
10717;SDS011;13513;42.700;23.124;2022-10-23T13:05:04;1.20;;;1.10;;
10717;SDS011;13513;42.700;23.124;2022-10-23T13:07:39;1.47;;;1.20;;
10717;SDS011;13513;42.700;23.124;2022-10-23T13:10:18;1.40;;;1.30;;
10717;SDS011;13513;42.700;23.124;2022-10-23T13:12:49;1.35;;;1.10;;
10717;SDS011;13513;42.700;23.124;2022-10-23T13:15:22;3.95;;;1.27;;
10717;SDS011;13513;42.700;23.124;2022-10-23T13:20:29;2.25;;;1.20;;
10717;SDS011;13513;42.700;23.124;2022-10-23T13:23:10;3.08;;;1.32;;
10717;SDS011;13513;42.700;23.124;2022-10-23T13:28:41;1.10;;;0.98;;
10717;SDS011;13513;42.700;23.124;2022-10-23T13:33:49;1.57;;;1.10;;
10717;SDS011;13513;42.700;23.124;2022-10-23T13:36:21;1.30;;;1.20;;
10717;SDS011;13513;42.700;23.124;2022-10-23T13:41:41;2.83;;;1.35;;
10717;SDS011;13513;42.700;23.124;2022-10-23T13:44:13;3.65;;;1.45;;
10717;SDS011;13513;42.700;23.124;2022-10-23T13:46:44;1.35;;;1.20;;
10717;SDS011;13513;42.700;23.124;2022-10-23T13:49:14;3.62;;;1.95;;
10717;SDS011;13513;42.700;23.124;2022-10-23T13:51:47;2.45;;;1.45;;
10717;SDS011;13513;42.700;23.124;2022-10-23T13:54:25;1.65;;;1.50;;
10717;SDS011;13513;42.700;23.124;2022-10-23T13:56:56;3.40;;;1.47;;
10717;SDS011;13513;42.700;23.124;2022-10-23T13:59:27;1.90;;;1.50;;
10717;SDS011;13513;42.700;23.124;2022-10-23T14:01:58;3.72;;;1.45;;
10717;SDS011;13513;42.700;23.124;2022-10-23T14:04:29;2.62;;;1.60;;
10717;SDS011;13513;42.700;23.124;2022-10-23T14:07:00;2.70;;;1.60;;
10717;SDS011;13513;42.700;23.124;2022-10-23T14:09:31;3.02;;;2.00;;
10717;SDS011;13513;42.700;23.124;2022-10-23T14:12:01;5.58;;;1.80;;
10717;SDS011;13513;42.700;23.124;2022-10-23T14:14:32;4.97;;;2.02;;
10717;SDS011;13513;42.700;23.124;2022-10-23T14:17:03;2.45;;;1.87;;
10717;SDS011;13513;42.700;23.124;2022-10-23T14:19:34;3.67;;;2.00;;
10717;SDS011;13513;42.700;23.124;2022-10-23T14:22:04;3.08;;;2.70;;
10717;SDS011;13513;42.700;23.124;2022-10-23T14:24:35;6.25;;;3.65;;
10717;SDS011;13513;42.700;23.124;2022-10-23T14:27:06;58.80;;;4.33;;
10717;SDS011;13513;42.700;23.124;2022-10-23T14:29:38;10.70;;;2.80;;
10717;SDS011;13513;42.700;23.124;2022-10-23T14:32:09;5.33;;;2.10;;
10717;SDS011;13513;42.700;23.124;2022-10-23T14:34:39;2.35;;;2.12;;
10717;SDS011;13513;42.700;23.124;2022-10-23T14:37:12;3.22;;;1.90;;
10717;SDS011;13513;42.700;23.124;2022-10-23T14:39:43;2.52;;;1.90;;
10717;SDS011;13513;42.700;23.124;2022-10-23T14:42:13;3.12;;;1.90;;
10717;SDS011;13513;42.700;23.124;2022-10-23T14:44:46;2.25;;;1.90;;
10717;SDS011;13513;42.700;23.124;2022-10-23T14:47:18;2.45;;;1.70;;
10717;SDS011;13513;42.700;23.124;2022-10-23T14:49:50;2.20;;;1.80;;
10717;SDS011;13513;42.700;23.124;2022-10-23T14:52:20;3.25;;;1.70;;
10717;SDS011;13513;42.700;23.124;2022-10-23T14:54:51;2.10;;;1.70;;
10717;SDS011;13513;42.700;23.124;2022-10-23T14:57:22;3.25;;;2.00;;
10717;SDS011;13513;42.700;23.124;2022-10-23T14:59:53;2.60;;;2.15;;
10717;SDS011;13513;42.700;23.124;2022-10-23T15:02:23;3.55;;;2.40;;
10717;SDS011;13513;42.700;23.124;2022-10-23T15:04:54;4.90;;;2.10;;
10717;SDS011;13513;42.700;23.124;2022-10-23T15:07:25;5.03;;;2.30;;
10717;SDS011;13513;42.700;23.124;2022-10-23T15:09:55;2.55;;;1.80;;
10717;SDS011;13513;42.700;23.124;2022-10-23T15:12:25;2.30;;;2.10;;
10717;SDS011;13513;42.700;23.124;2022-10-23T15:14:56;2.60;;;2.10;;
10717;SDS011;13513;42.700;23.124;2022-10-23T15:17:26;2.65;;;1.77;;
10717;SDS011;13513;42.700;23.124;2022-10-23T15:19:57;3.30;;;1.65;;
10717;SDS011;13513;42.700;23.124;2022-10-23T15:22:29;4.67;;;1.95;;
10717;SDS011;13513;42.700;23.124;2022-10-23T15:24:59;3.83;;;2.08;;
10717;SDS011;13513;42.700;23.124;2022-10-23T15:27:30;2.33;;;1.90;;
10717;SDS011;13513;42.700;23.124;2022-10-23T15:30:01;4.17;;;1.98;;
10717;SDS011;13513;42.700;23.124;2022-10-23T15:32:32;1.70;;;1.60;;
10717;SDS011;13513;42.700;23.124;2022-10-23T15:35:03;5.03;;;2.30;;
10717;SDS011;13513;42.700;23.124;2022-10-23T15:37:34;2.22;;;1.60;;
10717;SDS011;13513;42.700;23.124;2022-10-23T15:40:05;1.82;;;1.67;;
10717;SDS011;13513;42.700;23.124;2022-10-23T15:42:37;1.95;;;1.60;;
10717;SDS011;13513;42.700;23.124;2022-10-23T15:45:09;3.85;;;2.00;;
10717;SDS011;13513;42.700;23.124;2022-10-23T15:47:40;2.45;;;1.80;;
10717;SDS011;13513;42.700;23.124;2022-10-23T15:50:11;49.48;;;3.72;;
10717;SDS011;13513;42.700;23.124;2022-10-23T15:52:42;3.52;;;1.60;;
10717;SDS011;13513;42.700;23.124;2022-10-23T15:55:13;2.92;;;1.27;;
10717;SDS011;13513;42.700;23.124;2022-10-23T15:57:43;2.40;;;1.40;;
10717;SDS011;13513;42.700;23.124;2022-10-23T16:00:15;3.90;;;1.50;;
10717;SDS011;13513;42.700;23.124;2022-10-23T16:02:45;2.33;;;1.70;;
10717;SDS011;13513;42.700;23.124;2022-10-23T16:05:15;3.17;;;1.70;;
10717;SDS011;13513;42.700;23.124;2022-10-23T16:07:44;3.77;;;1.45;;
10717;SDS011;13513;42.700;23.124;2022-10-23T16:10:16;2.33;;;1.70;;
10717;SDS011;13513;42.700;23.124;2022-10-23T16:12:46;3.37;;;1.67;;
10717;SDS011;13513;42.700;23.124;2022-10-23T16:15:17;3.47;;;2.02;;
10717;SDS011;13513;42.700;23.124;2022-10-23T16:17:48;3.95;;;1.87;;
10717;SDS011;13513;42.700;23.124;2022-10-23T16:20:19;4.37;;;2.30;;
10717;SDS011;13513;42.700;23.124;2022-10-23T16:22:50;10.60;;;5.87;;
10717;SDS011;13513;42.700;23.124;2022-10-23T16:25:21;4.90;;;2.50;;
10717;SDS011;13513;42.700;23.124;2022-10-23T16:27:51;3.80;;;2.40;;
10717;SDS011;13513;42.700;23.124;2022-10-23T16:30:22;4.75;;;2.22;;
10717;SDS011;13513;42.700;23.124;2022-10-23T16:32:53;6.05;;;2.40;;
10717;SDS011;13513;42.700;23.124;2022-10-23T16:35:24;3.52;;;2.40;;